Skip Navigation Links
NOAA logo - Click to go to the NOAA homepage
NOAA's National Weather Service
Alaska Aviation Weather Unit
  NWS logo - Click to go to the NWS homepage
Left Navbar Graphic     22 AKDT = 06 GMT

   
NOAA is celebrating 200 years of science, service, and stewardship. Visit the NOAA 200th celebration Web site to learn more.
USA.gov is the U.S. Government's official Web portal to all Federal, state and local government Web resources and services.
Facebook
NWS on Facebook

Important Change Regarding the AAWU Web Presence

 

Over the last several months, the AAWU has been working to navigate its webpages to a nationally supported server. Security, as well as other needs, have necessitated the change.  We have been given an extension for the site changeover while we diligently work at addressing feedback received. As of July 14, 2017, aawu.arh.noaa.gov will be discontinued. The new AAWU web address is weather.gov/aawu. It is now live and will run in-parallel with the old site until it is discontinued on July 14, 2017. Please continue to send any feedback or questions regarding the new webpages to nws.ar.aawu.webauthors@noaa.gov.  Thank you for your patience during this time of transition.
AAWU Home :: Display TAF Add Bookmark
TAF PAVD 260537Z 2606/2706 VRB05KT P6SM FEW005 BKN025 OVC050
     FM262000 25006KT P6SM FEW015 BKN040 OVC070 AMD LTD TO CLD VIS
      AND WIND=

METAR PAVD 260016Z 00000KT 10SM FEW015 BKN040 OVC065 14/10 A3000= METAR PAVD 260016Z 00000KT 10SM FEW015 BKN040 OVC065 14/10 A3000 RMK AO1 2347Z WEA: NONE TWR WND 00000KT= METAR PAVD 260036Z 11003KT 10SM FEW015 BKN040 OVC065 14/10 A2999= METAR PAVD 260036Z 11003KT 10SM FEW015 BKN040 OVC065 14/10 A2999 RMK AO1 2347Z WEA: NONE TWR WND 00000KT= METAR PAVD 260056Z 10003KT 10SM FEW015 BKN060 OVC080 14/11 A2999= PAVD 260116Z 09003KT 10SM FEW015 BKN060 OVC080 14/11 A2999= METAR PAVD 260116Z 09003KT 10SM FEW015 BKN060 OVC080 14/11 A2999 RMK AO1 0047Z WEA: NONE TWR WND 00000KT= METAR PAVD 260136Z 00000KT 10SM FEW015 BKN060 OVC080 14/11 A2999= METAR PAVD 260136Z 00000KT 10SM FEW015 BKN060 OVC080 14/11 A2999 RMK AO1 0047Z WEA: NONE TWR WND 00000KT= METAR PAVD 260156Z 00000KT 10SM FEW009 BKN030 OVC070 14/10 A2998= PAVD 260216Z 22003KT 10SM FEW009 BKN030 OVC070 14/11 A2998= METAR PAVD 260216Z 22003KT 10SM FEW009 BKN030 OVC070 14/11 A2998 RMK AO1 0147Z WEA: NONE TWR WND 00000KT= PAVD 260236Z 21003KT 10SM FEW009 BKN030 OVC070 13/11 A2998= METAR PAVD 260236Z 21003KT 10SM FEW009 BKN030 OVC070 13/11 A2998 RMK AO1 0147Z WEA: NONE TWR WND 00000KT= METAR PAVD 260256Z 25004KT 10SM FEW009 BKN030 OVC070 13/11 A2998= PAVD 260316Z 25003KT 10SM FEW015 BKN035 OVC070 13/11 A2997= METAR PAVD 260316Z 25003KT 10SM FEW015 BKN035 OVC070 13/11 A2997 RMK AO1 0247Z COR WEA: NONE TWR WND 00000KT= PAVD 260336Z 25003KT 10SM FEW015 BKN035 OVC070 14/11 A2997= METAR PAVD 260336Z 25003KT 10SM FEW015 BKN035 OVC070 14/11 A2997 RMK AO1 0247Z COR WEA: NONE TWR WND 00000KT= METAR PAVD 260356Z 08004KT 10SM FEW011 BKN035 OVC085 14/09 A2997= METAR PAVD 260416Z 10003KT 10SM FEW011 BKN035 OVC085 14/10 A2997= METAR PAVD 260416Z 10003KT 10SM FEW011 BKN035 OVC085 14/10 A2997 RMK AO1 0347Z WEA: NONE TWR WND 00000KT= PAVD 260436Z 08003KT 10SM FEW011 BKN035 OVC085 13/08 A2997= METAR PAVD 260436Z 08003KT 10SM FEW011 BKN035 OVC085 13/08 A2997 RMK AO1 0347Z WEA: NONE TWR WND 00000KT= METAR PAVD 260456Z 00000KT 10SM FEW006 BKN030 OVC080 12/08 A2997= PAVD 260516Z 10003KT 10SM FEW006 BKN030 OVC080 12/08 A2996= METAR PAVD 260516Z 10003KT 10SM FEW006 BKN030 OVC080 12/08 A2996 RMK AO1 0447Z WEA: NONE TWR WND 00000KT= PAVD 260536Z 08003KT 10SM FEW006 BKN030 OVC080 12/08 A2996= METAR PAVD 260536Z 08003KT 10SM FEW006 BKN030 OVC080 12/08 A2996 RMK AO1 0447Z WEA: NONE TWR WND 00000KT= METAR PAVD 260556Z 09003KT 8SM FEW001 BKN018 OVC040 11/08 A2996= PAVD 260616Z 08003KT 10SM OVC011 11/08 A2996= METAR PAVD 260616Z 08003KT 10SM OVC011 11/08 A2996 RMK AO1=
 Alaska TAF Map

NOAA's National Weather Service
Alaska Aviation Weather Unit
6930 Sand Lake Road
Anchorage, AK 99502-1845
Disclaimer
Credits
Glossary
Privacy Policy
About Us
Career Opportunities
Contact AAWU Internet Services Site last modified: April, 17th 2012